sensor_id;sensor_type;location;lat;lon;timestamp;temperature;humidity
11079;DHT22;5592;49.234;7.268;2022-12-07T00:01:16;2.80;99.90
11079;DHT22;5592;49.234;7.268;2022-12-07T00:03:44;2.80;99.90
11079;DHT22;5592;49.234;7.268;2022-12-07T00:06:12;2.80;99.90
11079;DHT22;5592;49.234;7.268;2022-12-07T00:08:38;2.80;99.90
11079;DHT22;5592;49.234;7.268;2022-12-07T00:11:05;2.80;99.90
11079;DHT22;5592;49.234;7.268;2022-12-07T00:13:32;2.80;99.90
11079;DHT22;5592;49.234;7.268;2022-12-07T00:16:08;2.70;99.90
11079;DHT22;5592;49.234;7.268;2022-12-07T00:18:35;2.70;99.90
11079;DHT22;5592;49.234;7.268;2022-12-07T00:21:05;2.70;99.90
11079;DHT22;5592;49.234;7.268;2022-12-07T00:23:32;2.70;99.90
11079;DHT22;5592;49.234;7.268;2022-12-07T00:26:04;2.80;99.90
11079;DHT22;5592;49.234;7.268;2022-12-07T00:28:30;2.90;99.90
11079;DHT22;5592;49.234;7.268;2022-12-07T00:33:29;2.80;99.90
11079;DHT22;5592;49.234;7.268;2022-12-07T00:35:58;2.70;99.90
11079;DHT22;5592;49.234;7.268;2022-12-07T00:38:24;2.60;99.90
11079;DHT22;5592;49.234;7.268;2022-12-07T00:40:57;2.60;99.90
11079;DHT22;5592;49.234;7.268;2022-12-07T00:43:23;2.60;99.90
11079;DHT22;5592;49.234;7.268;2022-12-07T00:45:49;2.70;99.90
11079;DHT22;5592;49.234;7.268;2022-12-07T00:48:14;2.70;99.90
11079;DHT22;5592;49.234;7.268;2022-12-07T00:50:40;2.70;99.90
11079;DHT22;5592;49.234;7.268;2022-12-07T00:53:06;2.70;99.90
11079;DHT22;5592;49.234;7.268;2022-12-07T00:55:35;2.70;99.90
11079;DHT22;5592;49.234;7.268;2022-12-07T00:58:02;2.70;99.90
11079;DHT22;5592;49.234;7.268;2022-12-07T01:00:27;2.70;99.90
11079;DHT22;5592;49.234;7.268;2022-12-07T01:02:53;2.60;99.90
11079;DHT22;5592;49.234;7.268;2022-12-07T01:05:19;2.60;99.90
11079;DHT22;5592;49.234;7.268;2022-12-07T01:07:45;2.50;99.90
11079;DHT22;5592;49.234;7.268;2022-12-07T01:10:12;2.50;99.90
11079;DHT22;5592;49.234;7.268;2022-12-07T01:12:38;2.50;99.90
11079;DHT22;5592;49.234;7.268;2022-12-07T01:15:04;2.50;99.90
11079;DHT22;5592;49.234;7.268;2022-12-07T01:17:30;2.50;99.90
11079;DHT22;5592;49.234;7.268;2022-12-07T01:19:56;2.50;99.90
11079;DHT22;5592;49.234;7.268;2022-12-07T01:22:21;2.50;99.90
11079;DHT22;5592;49.234;7.268;2022-12-07T01:24:47;2.50;99.90
11079;DHT22;5592;49.234;7.268;2022-12-07T01:27:13;2.40;99.90
11079;DHT22;5592;49.234;7.268;2022-12-07T01:29:39;2.40;99.90
11079;DHT22;5592;49.234;7.268;2022-12-07T01:32:05;2.40;99.90
11079;DHT22;5592;49.234;7.268;2022-12-07T01:34:31;2.50;99.90
11079;DHT22;5592;49.234;7.268;2022-12-07T01:36:57;2.40;99.90
11079;DHT22;5592;49.234;7.268;2022-12-07T01:39:23;2.40;99.90
11079;DHT22;5592;49.234;7.268;2022-12-07T01:41:49;2.40;99.90
11079;DHT22;5592;49.234;7.268;2022-12-07T01:44:29;2.40;99.90
11079;DHT22;5592;49.234;7.268;2022-12-07T01:47:03;2.30;99.90
11079;DHT22;5592;49.234;7.268;2022-12-07T01:49:45;2.20;99.90
11079;DHT22;5592;49.234;7.268;2022-12-07T01:52:25;2.10;99.90
11079;DHT22;5592;49.234;7.268;2022-12-07T01:54:56;2.10;99.90
11079;DHT22;5592;49.234;7.268;2022-12-07T01:57:22;2.00;99.90
11079;DHT22;5592;49.234;7.268;2022-12-07T01:59:50;2.00;99.90
11079;DHT22;5592;49.234;7.268;2022-12-07T02:02:38;2.00;99.90
11079;DHT22;5592;49.234;7.268;2022-12-07T02:05:07;2.00;99.90
11079;DHT22;5592;49.234;7.268;2022-12-07T02:07:34;2.10;99.90
11079;DHT22;5592;49.234;7.268;2022-12-07T02:10:14;2.10;99.90
11079;DHT22;5592;49.234;7.268;2022-12-07T02:12:40;2.10;99.90
11079;DHT22;5592;49.234;7.268;2022-12-07T02:15:07;2.10;99.90
11079;DHT22;5592;49.234;7.268;2022-12-07T02:20:10;2.30;99.90
11079;DHT22;5592;49.234;7.268;2022-12-07T02:31:04;2.30;99.90
11079;DHT22;5592;49.234;7.268;2022-12-07T02:33:52;2.30;99.90
11079;DHT22;5592;49.234;7.268;2022-12-07T02:36:27;2.30;99.90
11079;DHT22;5592;49.234;7.268;2022-12-07T02:39:05;2.30;99.90
11079;DHT22;5592;49.234;7.268;2022-12-07T02:41:37;2.30;99.90
11079;DHT22;5592;49.234;7.268;2022-12-07T02:44:08;2.30;99.90
11079;DHT22;5592;49.234;7.268;2022-12-07T02:47:06;2.30;99.90
11079;DHT22;5592;49.234;7.268;2022-12-07T02:49:29;2.30;99.90
11079;DHT22;5592;49.234;7.268;2022-12-07T02:51:55;2.30;99.90
11079;DHT22;5592;49.234;7.268;2022-12-07T02:54:22;2.30;99.90
11079;DHT22;5592;49.234;7.268;2022-12-07T03:05:36;2.30;99.90
11079;DHT22;5592;49.234;7.268;2022-12-07T03:08:31;2.40;99.90
11079;DHT22;5592;49.234;7.268;2022-12-07T03:11:10;2.40;99.90
11079;DHT22;5592;49.234;7.268;2022-12-07T03:16:19;2.40;99.90
11079;DHT22;5592;49.234;7.268;2022-12-07T03:18:52;2.30;99.90
11079;DHT22;5592;49.234;7.268;2022-12-07T03:21:23;2.30;99.90
11079;DHT22;5592;49.234;7.268;2022-12-07T03:23:56;2.30;99.90
11079;DHT22;5592;49.234;7.268;2022-12-07T03:26:32;2.30;99.90
11079;DHT22;5592;49.234;7.268;2022-12-07T03:29:05;2.40;99.90
11079;DHT22;5592;49.234;7.268;2022-12-07T03:31:36;2.40;99.90
11079;DHT22;5592;49.234;7.268;2022-12-07T03:34:34;2.40;99.90
11079;DHT22;5592;49.234;7.268;2022-12-07T03:37:12;2.40;99.90
11079;DHT22;5592;49.234;7.268;2022-12-07T03:40:13;2.40;99.90
11079;DHT22;5592;49.234;7.268;2022-12-07T03:42:40;2.50;99.90
11079;DHT22;5592;49.234;7.268;2022-12-07T03:45:07;2.50;99.90
11079;DHT22;5592;49.234;7.268;2022-12-07T03:47:42;2.50;99.90
11079;DHT22;5592;49.234;7.268;2022-12-07T03:50:15;2.50;99.90
11079;DHT22;5592;49.234;7.268;2022-12-07T03:53:08;2.50;99.90
11079;DHT22;5592;49.234;7.268;2022-12-07T03:55:37;2.50;99.90
11079;DHT22;5592;49.234;7.268;2022-12-07T03:58:09;2.50;99.90
11079;DHT22;5592;49.234;7.268;2022-12-07T04:00:36;2.50;99.90
11079;DHT22;5592;49.234;7.268;2022-12-07T04:03:02;2.50;99.90
11079;DHT22;5592;49.234;7.268;2022-12-07T04:05:28;2.60;99.90
11079;DHT22;5592;49.234;7.268;2022-12-07T04:07:54;2.60;99.90
11079;DHT22;5592;49.234;7.268;2022-12-07T04:10:19;2.70;99.90
11079;DHT22;5592;49.234;7.268;2022-12-07T04:12:45;2.70;99.90
11079;DHT22;5592;49.234;7.268;2022-12-07T04:15:11;2.70;99.90
11079;DHT22;5592;49.234;7.268;2022-12-07T04:17:37;2.70;99.90
11079;DHT22;5592;49.234;7.268;2022-12-07T04:20:04;2.70;99.90
11079;DHT22;5592;49.234;7.268;2022-12-07T04:22:29;2.70;99.90
11079;DHT22;5592;49.234;7.268;2022-12-07T04:24:55;2.70;99.90
11079;DHT22;5592;49.234;7.268;2022-12-07T04:27:21;2.80;99.90
11079;DHT22;5592;49.234;7.268;2022-12-07T04:29:46;2.80;99.90
11079;DHT22;5592;49.234;7.268;2022-12-07T04:32:12;2.80;99.90
11079;DHT22;5592;49.234;7.268;2022-12-07T04:34:37;2.70;99.90
11079;DHT22;5592;49.234;7.268;2022-12-07T04:37:05;2.80;99.90
11079;DHT22;5592;49.234;7.268;2022-12-07T04:39:32;2.80;99.90
11079;DHT22;5592;49.234;7.268;2022-12-07T04:41:58;2.70;99.90
11079;DHT22;5592;49.234;7.268;2022-12-07T04:44:25;2.70;99.90
11079;DHT22;5592;49.234;7.268;2022-12-07T04:46:52;2.70;99.90
11079;DHT22;5592;49.234;7.268;2022-12-07T04:49:18;2.70;99.90
11079;DHT22;5592;49.234;7.268;2022-12-07T04:51:44;2.70;99.90
11079;DHT22;5592;49.234;7.268;2022-12-07T04:54:11;2.70;99.90
11079;DHT22;5592;49.234;7.268;2022-12-07T04:56:38;2.70;99.90
11079;DHT22;5592;49.234;7.268;2022-12-07T04:59:04;2.70;99.90
11079;DHT22;5592;49.234;7.268;2022-12-07T05:01:30;2.70;99.90
11079;DHT22;5592;49.234;7.268;2022-12-07T05:03:56;2.70;99.90
11079;DHT22;5592;49.234;7.268;2022-12-07T05:06:22;2.70;99.90
11079;DHT22;5592;49.234;7.268;2022-12-07T05:08:48;2.60;99.90
11079;DHT22;5592;49.234;7.268;2022-12-07T05:11:14;2.60;99.90
11079;DHT22;5592;49.234;7.268;2022-12-07T05:14:00;2.60;99.90
11079;DHT22;5592;49.234;7.268;2022-12-07T05:16:26;2.60;99.90
11079;DHT22;5592;49.234;7.268;2022-12-07T05:18:55;2.60;99.90
11079;DHT22;5592;49.234;7.268;2022-12-07T05:21:20;2.60;99.90
11079;DHT22;5592;49.234;7.268;2022-12-07T05:23:46;2.60;99.90
11079;DHT22;5592;49.234;7.268;2022-12-07T05:26:12;2.60;99.90
11079;DHT22;5592;49.234;7.268;2022-12-07T05:28:37;2.60;99.90
11079;DHT22;5592;49.234;7.268;2022-12-07T05:31:03;2.50;99.90
11079;DHT22;5592;49.234;7.268;2022-12-07T05:33:29;2.50;99.90
11079;DHT22;5592;49.234;7.268;2022-12-07T05:35:55;2.50;99.90
11079;DHT22;5592;49.234;7.268;2022-12-07T05:38:20;2.50;99.90
11079;DHT22;5592;49.234;7.268;2022-12-07T05:40:46;2.50;99.90
11079;DHT22;5592;49.234;7.268;2022-12-07T05:43:11;2.40;99.90
11079;DHT22;5592;49.234;7.268;2022-12-07T05:45:37;2.40;99.90
11079;DHT22;5592;49.234;7.268;2022-12-07T05:48:02;2.40;99.90
11079;DHT22;5592;49.234;7.268;2022-12-07T05:50:28;2.40;99.90
11079;DHT22;5592;49.234;7.268;2022-12-07T05:52:54;2.40;99.90
11079;DHT22;5592;49.234;7.268;2022-12-07T05:55:22;2.40;99.90
11079;DHT22;5592;49.234;7.268;2022-12-07T05:57:48;2.50;99.90
11079;DHT22;5592;49.234;7.268;2022-12-07T06:00:35;2.50;99.90
11079;DHT22;5592;49.234;7.268;2022-12-07T06:03:00;2.50;99.90
11079;DHT22;5592;49.234;7.268;2022-12-07T06:05:26;2.50;99.90
11079;DHT22;5592;49.234;7.268;2022-12-07T06:07:51;2.50;99.90
11079;DHT22;5592;49.234;7.268;2022-12-07T06:10:17;2.50;99.90
11079;DHT22;5592;49.234;7.268;2022-12-07T06:12:43;2.50;99.90
11079;DHT22;5592;49.234;7.268;2022-12-07T06:15:11;2.50;99.90
11079;DHT22;5592;49.234;7.268;2022-12-07T06:17:38;2.50;99.90
11079;DHT22;5592;49.234;7.268;2022-12-07T06:20:05;2.60;99.90
11079;DHT22;5592;49.234;7.268;2022-12-07T06:22:30;2.60;99.90
11079;DHT22;5592;49.234;7.268;2022-12-07T06:24:56;2.60;99.90
11079;DHT22;5592;49.234;7.268;2022-12-07T06:27:22;2.60;99.90
11079;DHT22;5592;49.234;7.268;2022-12-07T06:29:47;2.70;99.90
11079;DHT22;5592;49.234;7.268;2022-12-07T06:32:13;2.70;99.90
11079;DHT22;5592;49.234;7.268;2022-12-07T06:34:38;2.70;99.90
11079;DHT22;5592;49.234;7.268;2022-12-07T06:37:04;2.70;99.90
11079;DHT22;5592;49.234;7.268;2022-12-07T06:39:30;2.80;99.90
11079;DHT22;5592;49.234;7.268;2022-12-07T06:41:56;2.80;99.90
11079;DHT22;5592;49.234;7.268;2022-12-07T06:44:23;2.80;99.90
11079;DHT22;5592;49.234;7.268;2022-12-07T06:46:49;2.70;99.90
11079;DHT22;5592;49.234;7.268;2022-12-07T06:49:15;2.80;99.90
11079;DHT22;5592;49.234;7.268;2022-12-07T06:51:42;2.80;99.90
11079;DHT22;5592;49.234;7.268;2022-12-07T06:54:13;2.90;99.90
11079;DHT22;5592;49.234;7.268;2022-12-07T06:56:40;2.90;99.90
11079;DHT22;5592;49.234;7.268;2022-12-07T06:59:08;2.90;99.90
11079;DHT22;5592;49.234;7.268;2022-12-07T07:01:34;2.90;99.90
11079;DHT22;5592;49.234;7.268;2022-12-07T07:04:00;2.90;99.90
11079;DHT22;5592;49.234;7.268;2022-12-07T07:06:26;2.90;99.90
11079;DHT22;5592;49.234;7.268;2022-12-07T07:08:52;2.90;99.90
11079;DHT22;5592;49.234;7.268;2022-12-07T07:11:18;2.90;99.90
11079;DHT22;5592;49.234;7.268;2022-12-07T07:13:44;2.90;99.90
11079;DHT22;5592;49.234;7.268;2022-12-07T07:16:10;3.00;99.90
11079;DHT22;5592;49.234;7.268;2022-12-07T07:18:38;2.90;99.90
11079;DHT22;5592;49.234;7.268;2022-12-07T07:21:04;3.00;99.90
11079;DHT22;5592;49.234;7.268;2022-12-07T07:23:30;3.00;99.90
11079;DHT22;5592;49.234;7.268;2022-12-07T07:25:56;3.00;99.90
11079;DHT22;5592;49.234;7.268;2022-12-07T07:28:22;3.00;99.90
11079;DHT22;5592;49.234;7.268;2022-12-07T07:30:47;3.00;99.90
11079;DHT22;5592;49.234;7.268;2022-12-07T07:33:13;3.00;99.90
11079;DHT22;5592;49.234;7.268;2022-12-07T07:35:39;3.00;99.90
11079;DHT22;5592;49.234;7.268;2022-12-07T07:38:08;3.10;99.90
11079;DHT22;5592;49.234;7.268;2022-12-07T07:40:34;3.10;99.90
11079;DHT22;5592;49.234;7.268;2022-12-07T07:42:59;3.10;99.90
11079;DHT22;5592;49.234;7.268;2022-12-07T07:45:26;3.20;99.90
11079;DHT22;5592;49.234;7.268;2022-12-07T07:47:52;3.20;99.90
11079;DHT22;5592;49.234;7.268;2022-12-07T07:50:19;3.20;99.90
11079;DHT22;5592;49.234;7.268;2022-12-07T07:52:45;3.20;99.90
11079;DHT22;5592;49.234;7.268;2022-12-07T07:55:11;3.20;99.90
11079;DHT22;5592;49.234;7.268;2022-12-07T07:57:38;3.20;99.90
11079;DHT22;5592;49.234;7.268;2022-12-07T08:00:05;3.30;99.90
11079;DHT22;5592;49.234;7.268;2022-12-07T08:02:31;3.30;99.90
11079;DHT22;5592;49.234;7.268;2022-12-07T08:04:57;3.30;99.90
11079;DHT22;5592;49.234;7.268;2022-12-07T08:07:23;3.40;99.90
11079;DHT22;5592;49.234;7.268;2022-12-07T08:09:48;3.40;99.90
11079;DHT22;5592;49.234;7.268;2022-12-07T08:12:14;3.50;99.90
11079;DHT22;5592;49.234;7.268;2022-12-07T08:14:39;3.40;99.90
11079;DHT22;5592;49.234;7.268;2022-12-07T08:17:07;3.40;99.90
11079;DHT22;5592;49.234;7.268;2022-12-07T08:19:32;3.50;99.90
11079;DHT22;5592;49.234;7.268;2022-12-07T08:21:58;3.60;99.90
11079;DHT22;5592;49.234;7.268;2022-12-07T08:24:24;3.60;99.90
11079;DHT22;5592;49.234;7.268;2022-12-07T08:26:51;3.60;99.90
11079;DHT22;5592;49.234;7.268;2022-12-07T08:29:17;3.70;99.90
11079;DHT22;5592;49.234;7.268;2022-12-07T08:31:43;3.70;99.90
11079;DHT22;5592;49.234;7.268;2022-12-07T08:34:11;3.80;99.90
11079;DHT22;5592;49.234;7.268;2022-12-07T08:36:36;3.80;99.90
11079;DHT22;5592;49.234;7.268;2022-12-07T08:39:02;3.80;99.90
11079;DHT22;5592;49.234;7.268;2022-12-07T08:41:28;3.90;99.90
11079;DHT22;5592;49.234;7.268;2022-12-07T08:43:54;3.90;99.90
11079;DHT22;5592;49.234;7.268;2022-12-07T08:46:23;3.90;99.90
11079;DHT22;5592;49.234;7.268;2022-12-07T08:49:13;3.90;99.90
11079;DHT22;5592;49.234;7.268;2022-12-07T08:51:37;3.90;99.90
11079;DHT22;5592;49.234;7.268;2022-12-07T08:54:06;3.90;99.90
11079;DHT22;5592;49.234;7.268;2022-12-07T08:56:33;4.00;99.90
11079;DHT22;5592;49.234;7.268;2022-12-07T08:58:59;4.00;99.90
11079;DHT22;5592;49.234;7.268;2022-12-07T09:01:25;4.00;99.90
11079;DHT22;5592;49.234;7.268;2022-12-07T09:03:51;4.00;99.90
11079;DHT22;5592;49.234;7.268;2022-12-07T09:06:16;4.00;99.90
11079;DHT22;5592;49.234;7.268;2022-12-07T09:08:45;4.00;99.90
11079;DHT22;5592;49.234;7.268;2022-12-07T09:11:11;4.00;99.90
11079;DHT22;5592;49.234;7.268;2022-12-07T09:13:37;4.00;99.90
11079;DHT22;5592;49.234;7.268;2022-12-07T09:16:05;4.00;99.90
11079;DHT22;5592;49.234;7.268;2022-12-07T09:18:31;4.00;99.90
11079;DHT22;5592;49.234;7.268;2022-12-07T09:20:57;4.10;99.90
11079;DHT22;5592;49.234;7.268;2022-12-07T09:23:22;4.10;99.90
11079;DHT22;5592;49.234;7.268;2022-12-07T09:25:48;4.20;99.90
11079;DHT22;5592;49.234;7.268;2022-12-07T09:28:14;4.20;99.90
11079;DHT22;5592;49.234;7.268;2022-12-07T09:30:45;4.20;99.90
11079;DHT22;5592;49.234;7.268;2022-12-07T09:33:11;4.30;99.90
11079;DHT22;5592;49.234;7.268;2022-12-07T09:35:37;4.30;99.90
11079;DHT22;5592;49.234;7.268;2022-12-07T09:38:02;4.30;99.90
11079;DHT22;5592;49.234;7.268;2022-12-07T09:40:28;4.30;99.90
11079;DHT22;5592;49.234;7.268;2022-12-07T09:42:55;4.30;99.90
11079;DHT22;5592;49.234;7.268;2022-12-07T09:45:24;4.40;99.90
11079;DHT22;5592;49.234;7.268;2022-12-07T09:47:52;4.40;99.90
11079;DHT22;5592;49.234;7.268;2022-12-07T09:50:25;4.50;99.90
11079;DHT22;5592;49.234;7.268;2022-12-07T09:52:52;4.50;99.90
11079;DHT22;5592;49.234;7.268;2022-12-07T09:55:28;4.50;99.90
11079;DHT22;5592;49.234;7.268;2022-12-07T09:57:55;4.60;99.90
11079;DHT22;5592;49.234;7.268;2022-12-07T10:00:23;4.70;99.90
11079;DHT22;5592;49.234;7.268;2022-12-07T10:02:54;4.80;99.90
11079;DHT22;5592;49.234;7.268;2022-12-07T10:07:52;5.10;99.90
11079;DHT22;5592;49.234;7.268;2022-12-07T10:10:33;5.30;99.90
11079;DHT22;5592;49.234;7.268;2022-12-07T10:13:13;5.50;99.90
11079;DHT22;5592;49.234;7.268;2022-12-07T10:15:43;5.70;99.90
11079;DHT22;5592;49.234;7.268;2022-12-07T10:21:19;5.80;99.90
11079;DHT22;5592;49.234;7.268;2022-12-07T10:24:19;6.00;99.90
11079;DHT22;5592;49.234;7.268;2022-12-07T10:26:51;6.30;99.90
11079;DHT22;5592;49.234;7.268;2022-12-07T10:29:32;6.40;99.90
11079;DHT22;5592;49.234;7.268;2022-12-07T10:34:37;6.90;99.90
11079;DHT22;5592;49.234;7.268;2022-12-07T10:37:23;6.90;99.90
11079;DHT22;5592;49.234;7.268;2022-12-07T10:39:55;6.90;99.90
11079;DHT22;5592;49.234;7.268;2022-12-07T10:42:29;6.80;99.90
11079;DHT22;5592;49.234;7.268;2022-12-07T10:45:17;6.70;99.90
11079;DHT22;5592;49.234;7.268;2022-12-07T10:48:00;6.50;99.90
11079;DHT22;5592;49.234;7.268;2022-12-07T10:50:49;6.20;99.90
11079;DHT22;5592;49.234;7.268;2022-12-07T10:56:40;6.10;99.90
11079;DHT22;5592;49.234;7.268;2022-12-07T11:07:45;6.20;99.90
11079;DHT22;5592;49.234;7.268;2022-12-07T11:10:19;6.20;99.90
11079;DHT22;5592;49.234;7.268;2022-12-07T11:15:32;6.30;99.90
11079;DHT22;5592;49.234;7.268;2022-12-07T11:18:09;6.40;99.90
11079;DHT22;5592;49.234;7.268;2022-12-07T11:32:45;6.10;99.90
11079;DHT22;5592;49.234;7.268;2022-12-07T11:35:22;6.10;99.90
11079;DHT22;5592;49.234;7.268;2022-12-07T11:37:54;6.10;99.90
11079;DHT22;5592;49.234;7.268;2022-12-07T11:40:31;6.20;99.90
11079;DHT22;5592;49.234;7.268;2022-12-07T11:43:26;6.20;99.90
11079;DHT22;5592;49.234;7.268;2022-12-07T11:48:29;6.20;99.90
11079;DHT22;5592;49.234;7.268;2022-12-07T11:50:57;6.20;99.90
11079;DHT22;5592;49.234;7.268;2022-12-07T11:53:28;6.20;99.90
11079;DHT22;5592;49.234;7.268;2022-12-07T11:56:15;6.30;99.90
11079;DHT22;5592;49.234;7.268;2022-12-07T12:01:25;6.40;99.90
11079;DHT22;5592;49.234;7.268;2022-12-07T12:06:54;6.50;99.90
11079;DHT22;5592;49.234;7.268;2022-12-07T12:20:56;6.00;99.90
11079;DHT22;5592;49.234;7.268;2022-12-07T12:26:21;5.90;99.90
11079;DHT22;5592;49.234;7.268;2022-12-07T12:29:05;5.90;99.90
11079;DHT22;5592;49.234;7.268;2022-12-07T12:31:38;6.00;99.90
11079;DHT22;5592;49.234;7.268;2022-12-07T12:36:56;5.90;99.90
11079;DHT22;5592;49.234;7.268;2022-12-07T12:39:21;6.00;99.90
11079;DHT22;5592;49.234;7.268;2022-12-07T12:46:49;6.00;99.90
11079;DHT22;5592;49.234;7.268;2022-12-07T12:51:50;5.90;99.90
11079;DHT22;5592;49.234;7.268;2022-12-07T12:54:27;5.90;99.90
11079;DHT22;5592;49.234;7.268;2022-12-07T13:02:35;5.50;99.90
11079;DHT22;5592;49.234;7.268;2022-12-07T13:23:32;5.40;99.90
11079;DHT22;5592;49.234;7.268;2022-12-07T13:28:38;5.50;99.90
11079;DHT22;5592;49.234;7.268;2022-12-07T13:36:45;5.40;99.90
11079;DHT22;5592;49.234;7.268;2022-12-07T13:39:19;5.40;99.90
11079;DHT22;5592;49.234;7.268;2022-12-07T13:42:15;5.30;99.90
11079;DHT22;5592;49.234;7.268;2022-12-07T13:44:43;5.30;99.90
11079;DHT22;5592;49.234;7.268;2022-12-07T13:49:51;5.30;99.90
11079;DHT22;5592;49.234;7.268;2022-12-07T13:52:23;5.20;99.90
11079;DHT22;5592;49.234;7.268;2022-12-07T13:55:15;5.20;99.90
11079;DHT22;5592;49.234;7.268;2022-12-07T13:57:45;5.20;99.90
11079;DHT22;5592;49.234;7.268;2022-12-07T14:00:18;5.30;99.90
11079;DHT22;5592;49.234;7.268;2022-12-07T14:02:59;5.30;99.90
11079;DHT22;5592;49.234;7.268;2022-12-07T14:05:29;5.30;99.90
11079;DHT22;5592;49.234;7.268;2022-12-07T14:07:57;5.30;99.90
11079;DHT22;5592;49.234;7.268;2022-12-07T14:10:40;5.30;99.90
11079;DHT22;5592;49.234;7.268;2022-12-07T14:15:51;5.30;99.90
11079;DHT22;5592;49.234;7.268;2022-12-07T14:23:36;5.30;99.90
11079;DHT22;5592;49.234;7.268;2022-12-07T14:26:10;5.30;99.90
11079;DHT22;5592;49.234;7.268;2022-12-07T14:28:37;5.30;99.90
11079;DHT22;5592;49.234;7.268;2022-12-07T14:31:10;5.10;99.90
11079;DHT22;5592;49.234;7.268;2022-12-07T14:33:37;5.00;99.90
11079;DHT22;5592;49.234;7.268;2022-12-07T14:36:03;5.00;99.90
11079;DHT22;5592;49.234;7.268;2022-12-07T14:38:29;5.00;99.90
11079;DHT22;5592;49.234;7.268;2022-12-07T14:40:55;4.90;99.90
11079;DHT22;5592;49.234;7.268;2022-12-07T14:43:41;4.80;99.90
11079;DHT22;5592;49.234;7.268;2022-12-07T14:46:09;4.80;99.90
11079;DHT22;5592;49.234;7.268;2022-12-07T14:48:34;4.70;99.90
11079;DHT22;5592;49.234;7.268;2022-12-07T14:51:00;4.70;99.90
11079;DHT22;5592;49.234;7.268;2022-12-07T14:53:33;4.70;99.90
11079;DHT22;5592;49.234;7.268;2022-12-07T14:56:01;4.70;99.90
11079;DHT22;5592;49.234;7.268;2022-12-07T14:58:27;4.70;99.90
11079;DHT22;5592;49.234;7.268;2022-12-07T15:00:52;4.70;99.90
11079;DHT22;5592;49.234;7.268;2022-12-07T15:03:18;4.70;99.90
11079;DHT22;5592;49.234;7.268;2022-12-07T15:05:44;4.70;99.90
11079;DHT22;5592;49.234;7.268;2022-12-07T15:08:12;4.70;99.90
11079;DHT22;5592;49.234;7.268;2022-12-07T15:10:37;4.70;99.90
11079;DHT22;5592;49.234;7.268;2022-12-07T15:13:04;4.60;99.90
11079;DHT22;5592;49.234;7.268;2022-12-07T15:15:50;4.50;99.90
11079;DHT22;5592;49.234;7.268;2022-12-07T15:18:17;4.50;99.90
11079;DHT22;5592;49.234;7.268;2022-12-07T15:20:43;4.40;99.90
11079;DHT22;5592;49.234;7.268;2022-12-07T15:23:10;4.40;99.90
11079;DHT22;5592;49.234;7.268;2022-12-07T15:25:36;4.40;99.90
11079;DHT22;5592;49.234;7.268;2022-12-07T15:28:02;4.30;99.90
11079;DHT22;5592;49.234;7.268;2022-12-07T15:30:28;4.30;99.90
11079;DHT22;5592;49.234;7.268;2022-12-07T15:32:53;4.30;99.90
11079;DHT22;5592;49.234;7.268;2022-12-07T15:35:20;4.30;99.90
11079;DHT22;5592;49.234;7.268;2022-12-07T15:37:46;4.20;99.90
11079;DHT22;5592;49.234;7.268;2022-12-07T15:40:13;4.20;99.90
11079;DHT22;5592;49.234;7.268;2022-12-07T15:42:39;4.20;99.90
11079;DHT22;5592;49.234;7.268;2022-12-07T15:45:06;4.20;99.90
11079;DHT22;5592;49.234;7.268;2022-12-07T15:47:35;4.20;99.90
11079;DHT22;5592;49.234;7.268;2022-12-07T15:50:03;4.10;99.90
11079;DHT22;5592;49.234;7.268;2022-12-07T15:52:29;4.10;99.90
11079;DHT22;5592;49.234;7.268;2022-12-07T15:54:55;4.10;99.90
11079;DHT22;5592;49.234;7.268;2022-12-07T15:57:21;4.10;99.90
11079;DHT22;5592;49.234;7.268;2022-12-07T15:59:46;4.00;99.90
11079;DHT22;5592;49.234;7.268;2022-12-07T16:02:15;4.00;99.90
11079;DHT22;5592;49.234;7.268;2022-12-07T16:04:41;4.00;99.90
11079;DHT22;5592;49.234;7.268;2022-12-07T16:07:06;4.00;99.90
11079;DHT22;5592;49.234;7.268;2022-12-07T16:09:32;4.00;99.90
11079;DHT22;5592;49.234;7.268;2022-12-07T16:12:00;3.90;99.90
11079;DHT22;5592;49.234;7.268;2022-12-07T16:14:26;3.90;99.90
11079;DHT22;5592;49.234;7.268;2022-12-07T16:16:52;3.90;99.90
11079;DHT22;5592;49.234;7.268;2022-12-07T16:19:17;3.90;99.90
11079;DHT22;5592;49.234;7.268;2022-12-07T16:21:46;3.80;99.90
11079;DHT22;5592;49.234;7.268;2022-12-07T16:24:11;3.80;99.90
11079;DHT22;5592;49.234;7.268;2022-12-07T16:26:42;3.80;99.90
11079;DHT22;5592;49.234;7.268;2022-12-07T16:29:09;3.80;99.90
11079;DHT22;5592;49.234;7.268;2022-12-07T16:31:37;3.80;99.90
11079;DHT22;5592;49.234;7.268;2022-12-07T16:34:03;3.70;99.90
11079;DHT22;5592;49.234;7.268;2022-12-07T16:36:33;3.70;99.90
11079;DHT22;5592;49.234;7.268;2022-12-07T16:39:01;3.70;99.90
11079;DHT22;5592;49.234;7.268;2022-12-07T16:41:28;3.70;99.90
11079;DHT22;5592;49.234;7.268;2022-12-07T16:43:54;3.70;99.90
11079;DHT22;5592;49.234;7.268;2022-12-07T16:46:23;3.60;99.90
11079;DHT22;5592;49.234;7.268;2022-12-07T16:48:49;3.60;99.90
11079;DHT22;5592;49.234;7.268;2022-12-07T16:51:17;3.50;99.90
11079;DHT22;5592;49.234;7.268;2022-12-07T16:53:43;3.50;99.90
11079;DHT22;5592;49.234;7.268;2022-12-07T16:56:15;3.40;99.90
11079;DHT22;5592;49.234;7.268;2022-12-07T16:58:42;3.40;99.90
11079;DHT22;5592;49.234;7.268;2022-12-07T17:01:11;3.40;99.90
11079;DHT22;5592;49.234;7.268;2022-12-07T17:03:37;3.30;99.90
11079;DHT22;5592;49.234;7.268;2022-12-07T17:06:02;3.20;99.90
11079;DHT22;5592;49.234;7.268;2022-12-07T17:08:28;3.20;99.90
11079;DHT22;5592;49.234;7.268;2022-12-07T17:10:54;3.10;99.90
11079;DHT22;5592;49.234;7.268;2022-12-07T17:13:21;3.10;99.90
11079;DHT22;5592;49.234;7.268;2022-12-07T17:16:06;3.00;99.90
11079;DHT22;5592;49.234;7.268;2022-12-07T17:18:34;3.00;99.90
11079;DHT22;5592;49.234;7.268;2022-12-07T17:21:05;3.00;99.90
11079;DHT22;5592;49.234;7.268;2022-12-07T17:23:35;3.00;99.90
11079;DHT22;5592;49.234;7.268;2022-12-07T17:26:10;3.00;99.90
11079;DHT22;5592;49.234;7.268;2022-12-07T17:28:37;3.00;99.90
11079;DHT22;5592;49.234;7.268;2022-12-07T17:31:07;3.00;99.90
11079;DHT22;5592;49.234;7.268;2022-12-07T17:33:34;3.00;99.90
11079;DHT22;5592;49.234;7.268;2022-12-07T17:36:00;3.00;99.90
11079;DHT22;5592;49.234;7.268;2022-12-07T17:38:28;3.00;99.90
11079;DHT22;5592;49.234;7.268;2022-12-07T17:40:53;3.00;99.90
11079;DHT22;5592;49.234;7.268;2022-12-07T17:43:19;3.00;99.90
11079;DHT22;5592;49.234;7.268;2022-12-07T17:45:45;3.00;99.90
11079;DHT22;5592;49.234;7.268;2022-12-07T17:48:11;3.00;99.90
11079;DHT22;5592;49.234;7.268;2022-12-07T17:50:38;3.00;99.90
11079;DHT22;5592;49.234;7.268;2022-12-07T17:53:23;3.00;99.90
11079;DHT22;5592;49.234;7.268;2022-12-07T17:55:52;3.00;99.90
11079;DHT22;5592;49.234;7.268;2022-12-07T17:58:18;3.00;99.90
11079;DHT22;5592;49.234;7.268;2022-12-07T18:00:43;3.00;99.90
11079;DHT22;5592;49.234;7.268;2022-12-07T18:03:09;3.00;99.90
11079;DHT22;5592;49.234;7.268;2022-12-07T18:05:37;2.90;99.90
11079;DHT22;5592;49.234;7.268;2022-12-07T18:08:03;3.00;99.90
11079;DHT22;5592;49.234;7.268;2022-12-07T18:10:32;2.90;99.90
11079;DHT22;5592;49.234;7.268;2022-12-07T18:12:58;2.90;99.90
11079;DHT22;5592;49.234;7.268;2022-12-07T18:15:42;2.90;99.90
11079;DHT22;5592;49.234;7.268;2022-12-07T18:18:10;2.90;99.90
11079;DHT22;5592;49.234;7.268;2022-12-07T18:20:36;2.90;99.90
11079;DHT22;5592;49.234;7.268;2022-12-07T18:23:01;2.90;99.90
11079;DHT22;5592;49.234;7.268;2022-12-07T18:25:27;2.90;99.90
11079;DHT22;5592;49.234;7.268;2022-12-07T18:27:52;2.80;99.90
11079;DHT22;5592;49.234;7.268;2022-12-07T18:30:20;2.90;99.90